sensor_id;sensor_type;location;lat;lon;timestamp;pressure;altitude;pressure_sealevel;temperature;humidity
73651;BME280;61944;52.538;6.108;2023-08-17T00:01:38;102063.53;;;17.62;100.00
73651;BME280;61944;52.538;6.108;2023-08-17T00:04:03;102068.91;;;17.85;100.00
73651;BME280;61944;52.538;6.108;2023-08-17T00:06:28;102077.81;;;17.87;100.00
73651;BME280;61944;52.538;6.108;2023-08-17T00:08:54;102074.47;;;17.63;100.00
73651;BME280;61944;52.538;6.108;2023-08-17T00:11:19;102066.03;;;17.81;100.00
73651;BME280;61944;52.538;6.108;2023-08-17T00:13:45;102037.25;;;17.68;100.00
73651;BME280;61944;52.538;6.108;2023-08-17T00:16:10;102057.06;;;17.61;100.00
73651;BME280;61944;52.538;6.108;2023-08-17T00:18:35;102057.50;;;17.67;100.00
73651;BME280;61944;52.538;6.108;2023-08-17T00:21:01;102061.13;;;17.60;100.00
73651;BME280;61944;52.538;6.108;2023-08-17T00:23:26;102057.84;;;17.55;100.00
73651;BME280;61944;52.538;6.108;2023-08-17T00:25:51;102056.25;;;17.57;100.00
73651;BME280;61944;52.538;6.108;2023-08-17T00:28:17;102066.84;;;17.82;100.00
73651;BME280;61944;52.538;6.108;2023-08-17T00:30:42;102050.16;;;17.55;100.00
73651;BME280;61944;52.538;6.108;2023-08-17T00:33:07;102065.56;;;17.68;100.00
73651;BME280;61944;52.538;6.108;2023-08-17T00:35:33;102061.03;;;17.50;100.00
73651;BME280;61944;52.538;6.108;2023-08-17T00:38:02;102055.50;;;17.75;100.00
73651;BME280;61944;52.538;6.108;2023-08-17T00:40:27;102051.88;;;17.78;100.00
73651;BME280;61944;52.538;6.108;2023-08-17T00:42:52;102050.25;;;17.73;100.00
73651;BME280;61944;52.538;6.108;2023-08-17T00:45:18;102053.00;;;17.62;100.00
73651;BME280;61944;52.538;6.108;2023-08-17T00:47:44;102037.66;;;17.56;100.00
73651;BME280;61944;52.538;6.108;2023-08-17T00:50:10;102025.44;;;17.38;100.00
73651;BME280;61944;52.538;6.108;2023-08-17T00:52:36;102019.75;;;17.38;100.00
73651;BME280;61944;52.538;6.108;2023-08-17T00:55:02;102029.44;;;17.30;100.00
73651;BME280;61944;52.538;6.108;2023-08-17T00:57:28;102017.41;;;17.54;100.00
73651;BME280;61944;52.538;6.108;2023-08-17T00:59:53;102029.44;;;17.37;100.00
73651;BME280;61944;52.538;6.108;2023-08-17T01:02:19;102004.75;;;17.30;100.00
73651;BME280;61944;52.538;6.108;2023-08-17T01:04:45;102028.59;;;17.25;100.00
73651;BME280;61944;52.538;6.108;2023-08-17T01:07:11;102025.44;;;17.45;100.00
73651;BME280;61944;52.538;6.108;2023-08-17T01:09:37;102031.88;;;17.35;100.00
73651;BME280;61944;52.538;6.108;2023-08-17T01:12:16;102027.84;;;17.36;100.00
73651;BME280;61944;52.538;6.108;2023-08-17T01:17:27;102016.88;;;17.31;100.00
73651;BME280;61944;52.538;6.108;2023-08-17T01:19:55;102024.66;;;17.48;100.00
73651;BME280;61944;52.538;6.108;2023-08-17T01:22:24;102020.97;;;17.37;100.00
73651;BME280;61944;52.538;6.108;2023-08-17T01:24:50;102024.09;;;17.17;100.00
73651;BME280;61944;52.538;6.108;2023-08-17T01:27:22;102015.59;;;17.14;100.00
73651;BME280;61944;52.538;6.108;2023-08-17T01:29:48;102025.44;;;17.45;100.00
73651;BME280;61944;52.538;6.108;2023-08-17T01:32:36;102011.53;;;17.11;100.00
73651;BME280;61944;52.538;6.108;2023-08-17T01:35:16;102016.44;;;17.21;100.00
73651;BME280;61944;52.538;6.108;2023-08-17T01:37:44;102020.41;;;17.06;100.00
73651;BME280;61944;52.538;6.108;2023-08-17T01:40:11;102018.88;;;17.26;100.00
73651;BME280;61944;52.538;6.108;2023-08-17T01:42:38;102031.88;;;17.35;100.00
73651;BME280;61944;52.538;6.108;2023-08-17T01:45:04;102017.63;;;17.13;100.00
73651;BME280;61944;52.538;6.108;2023-08-17T01:47:30;102026.38;;;16.86;100.00
73651;BME280;61944;52.538;6.108;2023-08-17T01:49:55;102009.47;;;17.01;100.00
73651;BME280;61944;52.538;6.108;2023-08-17T01:52:26;102025.28;;;17.09;100.00
73651;BME280;61944;52.538;6.108;2023-08-17T01:54:53;102021.97;;;16.96;100.00
73651;BME280;61944;52.538;6.108;2023-08-17T01:57:18;102020.75;;;16.94;100.00
73651;BME280;61944;52.538;6.108;2023-08-17T01:59:43;102008.59;;;16.90;100.00
73651;BME280;61944;52.538;6.108;2023-08-17T02:02:09;102017.94;;;16.97;100.00
73651;BME280;61944;52.538;6.108;2023-08-17T02:04:34;102013.38;;;16.82;100.00
73651;BME280;61944;52.538;6.108;2023-08-17T02:07:00;101989.59;;;16.86;100.00
73651;BME280;61944;52.538;6.108;2023-08-17T02:09:25;102008.66;;;17.00;100.00
73651;BME280;61944;52.538;6.108;2023-08-17T02:11:51;102017.09;;;16.97;100.00
73651;BME280;61944;52.538;6.108;2023-08-17T02:14:16;101991.50;;;16.75;100.00
73651;BME280;61944;52.538;6.108;2023-08-17T02:16:41;102014.38;;;17.11;100.00
73651;BME280;61944;52.538;6.108;2023-08-17T02:19:07;102017.59;;;17.10;100.00
73651;BME280;61944;52.538;6.108;2023-08-17T02:21:33;102014.72;;;17.02;100.00
73651;BME280;61944;52.538;6.108;2023-08-17T02:23:58;102013.31;;;16.75;100.00
73651;BME280;61944;52.538;6.108;2023-08-17T02:26:23;101994.50;;;17.00;100.00
73651;BME280;61944;52.538;6.108;2023-08-17T02:28:49;102009.53;;;17.15;100.00
73651;BME280;61944;52.538;6.108;2023-08-17T02:31:14;102002.63;;;17.02;100.00
73651;BME280;61944;52.538;6.108;2023-08-17T02:33:39;101997.56;;;16.77;100.00
73651;BME280;61944;52.538;6.108;2023-08-17T02:36:05;101998.38;;;16.74;100.00
73651;BME280;61944;52.538;6.108;2023-08-17T02:38:30;101992.44;;;16.90;100.00
73651;BME280;61944;52.538;6.108;2023-08-17T02:40:56;101980.56;;;16.74;100.00
73651;BME280;61944;52.538;6.108;2023-08-17T02:43:24;101991.91;;;16.77;100.00
73651;BME280;61944;52.538;6.108;2023-08-17T02:45:49;101977.03;;;16.80;100.00
73651;BME280;61944;52.538;6.108;2023-08-17T02:48:14;101983.81;;;16.72;100.00
73651;BME280;61944;52.538;6.108;2023-08-17T02:50:40;101984.41;;;16.40;100.00
73651;BME280;61944;52.538;6.108;2023-08-17T02:53:05;101991.84;;;16.66;100.00
73651;BME280;61944;52.538;6.108;2023-08-17T02:55:31;101991.78;;;16.56;100.00
73651;BME280;61944;52.538;6.108;2023-08-17T02:57:56;101995.84;;;16.62;100.00
73651;BME280;61944;52.538;6.108;2023-08-17T03:00:21;101980.56;;;16.70;100.00
73651;BME280;61944;52.538;6.108;2023-08-17T03:02:47;101996.72;;;16.73;100.00
73651;BME280;61944;52.538;6.108;2023-08-17T03:05:12;101978.06;;;16.58;100.00
73651;BME280;61944;52.538;6.108;2023-08-17T03:07:37;101989.88;;;16.74;100.00
73651;BME280;61944;52.538;6.108;2023-08-17T03:10:03;101982.16;;;16.64;100.00
73651;BME280;61944;52.538;6.108;2023-08-17T03:12:29;101972.34;;;16.51;100.00
73651;BME280;61944;52.538;6.108;2023-08-17T03:14:54;101992.31;;;16.72;100.00
73651;BME280;61944;52.538;6.108;2023-08-17T03:17:20;101975.59;;;16.53;100.00
73651;BME280;61944;52.538;6.108;2023-08-17T03:19:45;101986.09;;;16.52;100.00
73651;BME280;61944;52.538;6.108;2023-08-17T03:22:11;101985.66;;;16.46;100.00
73651;BME280;61944;52.538;6.108;2023-08-17T03:24:36;101992.44;;;16.38;100.00
73651;BME280;61944;52.538;6.108;2023-08-17T03:27:01;101993.34;;;16.50;100.00
73651;BME280;61944;52.538;6.108;2023-08-17T03:29:27;101980.34;;;16.41;100.00
73651;BME280;61944;52.538;6.108;2023-08-17T03:31:52;101982.19;;;16.67;100.00
73651;BME280;61944;52.538;6.108;2023-08-17T03:34:18;101990.88;;;16.44;100.00
73651;BME280;61944;52.538;6.108;2023-08-17T03:36:43;101984.47;;;16.51;100.00
73651;BME280;61944;52.538;6.108;2023-08-17T03:39:08;101980.13;;;16.64;100.00
73651;BME280;61944;52.538;6.108;2023-08-17T03:41:34;101969.84;;;16.42;100.00
73651;BME280;61944;52.538;6.108;2023-08-17T03:44:02;101978.75;;;16.44;100.00
73651;BME280;61944;52.538;6.108;2023-08-17T03:46:28;101985.31;;;16.55;100.00
73651;BME280;61944;52.538;6.108;2023-08-17T03:48:53;101986.56;;;16.61;100.00
73651;BME280;61944;52.538;6.108;2023-08-17T03:51:18;101988.53;;;16.54;100.00
73651;BME280;61944;52.538;6.108;2023-08-17T03:53:44;101989.41;;;16.65;100.00
73651;BME280;61944;52.538;6.108;2023-08-17T03:56:09;101988.22;;;16.66;100.00
73651;BME280;61944;52.538;6.108;2023-08-17T03:58:35;101981.75;;;16.65;100.00
73651;BME280;61944;52.538;6.108;2023-08-17T04:01:03;101988.00;;;16.37;100.00
73651;BME280;61944;52.538;6.108;2023-08-17T04:03:30;101992.44;;;16.38;100.00
73651;BME280;61944;52.538;6.108;2023-08-17T04:05:56;101986.19;;;16.66;100.00
73651;BME280;61944;52.538;6.108;2023-08-17T04:08:21;101992.72;;;16.74;100.00
73651;BME280;61944;52.538;6.108;2023-08-17T04:10:47;101991.81;;;16.59;100.00
73651;BME280;61944;52.538;6.108;2023-08-17T04:13:12;101978.25;;;16.31;100.00
73651;BME280;61944;52.538;6.108;2023-08-17T04:15:37;101975.22;;;16.58;100.00
73651;BME280;61944;52.538;6.108;2023-08-17T04:18:03;101981.75;;;16.69;100.00
73651;BME280;61944;52.538;6.108;2023-08-17T04:20:29;101978.81;;;16.55;100.00
73651;BME280;61944;52.538;6.108;2023-08-17T04:22:54;101969.88;;;16.45;100.00
73651;BME280;61944;52.538;6.108;2023-08-17T04:25:19;101974.00;;;16.59;100.00
73651;BME280;61944;52.538;6.108;2023-08-17T04:27:45;101986.84;;;16.45;100.00
73651;BME280;61944;52.538;6.108;2023-08-17T04:30:11;101971.44;;;16.39;100.00
73651;BME280;61944;52.538;6.108;2023-08-17T04:32:36;101963.81;;;16.43;100.00
73651;BME280;61944;52.538;6.108;2023-08-17T04:35:02;101977.13;;;16.43;100.00
73651;BME280;61944;52.538;6.108;2023-08-17T04:37:27;101974.69;;;16.41;100.00
73651;BME280;61944;52.538;6.108;2023-08-17T04:39:52;101965.13;;;16.57;100.00
73651;BME280;61944;52.538;6.108;2023-08-17T04:42:18;101967.53;;;16.51;100.00
73651;BME280;61944;52.538;6.108;2023-08-17T04:44:45;101950.94;;;16.50;100.00
73651;BME280;61944;52.538;6.108;2023-08-17T04:47:10;101945.69;;;16.44;100.00
73651;BME280;61944;52.538;6.108;2023-08-17T04:49:36;101966.19;;;16.38;100.00
73651;BME280;61944;52.538;6.108;2023-08-17T04:52:01;101957.41;;;16.46;100.00
73651;BME280;61944;52.538;6.108;2023-08-17T04:54:27;101959.19;;;16.21;100.00
73651;BME280;61944;52.538;6.108;2023-08-17T04:56:53;101967.66;;;16.21;100.00
73651;BME280;61944;52.538;6.108;2023-08-17T04:59:18;101965.94;;;16.57;100.00
73651;BME280;61944;52.538;6.108;2023-08-17T05:01:43;101956.97;;;16.44;100.00
73651;BME280;61944;52.538;6.108;2023-08-17T05:04:12;101966.78;;;16.65;100.00
73651;BME280;61944;52.538;6.108;2023-08-17T05:06:37;101958.31;;;16.65;100.00
73651;BME280;61944;52.538;6.108;2023-08-17T05:09:03;101948.13;;;16.50;100.00
73651;BME280;61944;52.538;6.108;2023-08-17T05:11:30;101954.50;;;16.39;100.00
73651;BME280;61944;52.538;6.108;2023-08-17T05:13:55;101964.28;;;16.53;100.00
73651;BME280;61944;52.538;6.108;2023-08-17T05:16:21;101945.59;;;16.37;100.00
73651;BME280;61944;52.538;6.108;2023-08-17T05:18:47;101946.44;;;16.41;100.00
73651;BME280;61944;52.538;6.108;2023-08-17T05:21:12;101952.97;;;16.49;100.00
73651;BME280;61944;52.538;6.108;2023-08-17T05:23:38;101944.00;;;16.36;100.00
73651;BME280;61944;52.538;6.108;2023-08-17T05:26:03;101964.25;;;16.45;100.00
73651;BME280;61944;52.538;6.108;2023-08-17T05:28:28;101966.59;;;16.36;100.00
73651;BME280;61944;52.538;6.108;2023-08-17T05:30:54;101943.91;;;16.25;100.00
73651;BME280;61944;52.538;6.108;2023-08-17T05:33:19;101943.56;;;16.34;100.00
73651;BME280;61944;52.538;6.108;2023-08-17T05:35:53;101966.66;;;16.43;100.00
73651;BME280;61944;52.538;6.108;2023-08-17T05:38:19;101946.91;;;16.51;100.00
73651;BME280;61944;52.538;6.108;2023-08-17T05:40:44;101969.69;;;16.76;100.00
73651;BME280;61944;52.538;6.108;2023-08-17T05:43:10;101945.31;;;16.53;100.00
73651;BME280;61944;52.538;6.108;2023-08-17T05:45:35;101958.31;;;16.61;100.00
73651;BME280;61944;52.538;6.108;2023-08-17T05:48:02;101965.56;;;16.62;100.00
73651;BME280;61944;52.538;6.108;2023-08-17T05:50:27;101968.03;;;16.67;100.00
73651;BME280;61944;52.538;6.108;2023-08-17T05:52:54;101961.44;;;16.53;100.00
73651;BME280;61944;52.538;6.108;2023-08-17T05:55:19;101980.09;;;16.57;100.00
73651;BME280;61944;52.538;6.108;2023-08-17T05:57:45;101974.00;;;16.59;100.00
73651;BME280;61944;52.538;6.108;2023-08-17T06:00:11;101980.78;;;16.43;100.00
73651;BME280;61944;52.538;6.108;2023-08-17T06:02:37;101969.19;;;16.59;100.00
73651;BME280;61944;52.538;6.108;2023-08-17T06:05:03;101967.88;;;16.42;100.00
73651;BME280;61944;52.538;6.108;2023-08-17T06:07:28;101971.88;;;16.41;100.00
73651;BME280;61944;52.538;6.108;2023-08-17T06:09:54;101969.09;;;16.45;100.00
73651;BME280;61944;52.538;6.108;2023-08-17T06:12:19;101966.75;;;16.58;100.00
73651;BME280;61944;52.538;6.108;2023-08-17T06:14:45;101964.38;;;16.63;100.00
73651;BME280;61944;52.538;6.108;2023-08-17T06:17:10;101973.25;;;16.62;100.00
73651;BME280;61944;52.538;6.108;2023-08-17T06:19:35;101982.72;;;16.88;100.00
73651;BME280;61944;52.538;6.108;2023-08-17T06:22:01;101985.84;;;16.75;100.00
73651;BME280;61944;52.538;6.108;2023-08-17T06:24:26;101988.75;;;16.82;100.00
73651;BME280;61944;52.538;6.108;2023-08-17T06:26:51;101977.47;;;16.82;100.00
73651;BME280;61944;52.538;6.108;2023-08-17T06:29:17;101982.34;;;16.89;100.00
73651;BME280;61944;52.538;6.108;2023-08-17T06:31:45;101981.47;;;16.81;100.00
73651;BME280;61944;52.538;6.108;2023-08-17T06:34:11;101964.81;;;16.69;100.00
73651;BME280;61944;52.538;6.108;2023-08-17T06:36:38;101974.50;;;16.72;100.00
73651;BME280;61944;52.538;6.108;2023-08-17T06:39:04;101969.34;;;16.81;100.00
73651;BME280;61944;52.538;6.108;2023-08-17T06:41:29;101972.53;;;16.79;100.00
73651;BME280;61944;52.538;6.108;2023-08-17T06:43:55;101982.31;;;16.85;100.00
73651;BME280;61944;52.538;6.108;2023-08-17T06:46:20;101970.53;;;16.76;100.00
73651;BME280;61944;52.538;6.108;2023-08-17T06:48:45;101982.34;;;16.93;100.00
73651;BME280;61944;52.538;6.108;2023-08-17T06:51:11;101955.56;;;16.79;100.00
73651;BME280;61944;52.538;6.108;2023-08-17T06:53:36;101994.13;;;17.02;100.00
73651;BME280;61944;52.538;6.108;2023-08-17T06:56:02;101997.72;;;16.99;100.00
73651;BME280;61944;52.538;6.108;2023-08-17T06:58:27;101998.56;;;16.99;100.00
73651;BME280;61944;52.538;6.108;2023-08-17T07:00:52;101987.63;;;16.98;100.00
73651;BME280;61944;52.538;6.108;2023-08-17T07:03:18;101998.56;;;17.03;100.00
73651;BME280;61944;52.538;6.108;2023-08-17T07:05:44;101999.31;;;16.93;100.00
73651;BME280;61944;52.538;6.108;2023-08-17T07:08:09;101998.16;;;17.01;100.00
73651;BME280;61944;52.538;6.108;2023-08-17T07:10:35;101994.56;;;17.11;100.00
73651;BME280;61944;52.538;6.108;2023-08-17T07:13:00;102005.09;;;17.14;100.00
73651;BME280;61944;52.538;6.108;2023-08-17T07:15:31;102001.88;;;17.19;100.00
73651;BME280;61944;52.538;6.108;2023-08-17T07:17:56;101989.31;;;17.13;100.00
73651;BME280;61944;52.538;6.108;2023-08-17T07:20:22;102001.13;;;17.30;100.00
73651;BME280;61944;52.538;6.108;2023-08-17T07:22:47;102007.53;;;17.16;100.00
73651;BME280;61944;52.538;6.108;2023-08-17T07:25:13;102008.78;;;17.18;100.00
73651;BME280;61944;52.538;6.108;2023-08-17T07:27:38;102010.81;;;17.25;100.00
73651;BME280;61944;52.538;6.108;2023-08-17T07:30:04;101999.91;;;17.27;100.00
73651;BME280;61944;52.538;6.108;2023-08-17T07:32:30;101999.91;;;17.31;100.00
73651;BME280;61944;52.538;6.108;2023-08-17T07:34:55;102007.22;;;17.35;100.00
73651;BME280;61944;52.538;6.108;2023-08-17T07:37:20;101984.97;;;17.34;100.00
73651;BME280;61944;52.538;6.108;2023-08-17T07:39:46;101978.91;;;17.32;100.00
73651;BME280;61944;52.538;6.108;2023-08-17T07:42:11;101995.56;;;17.51;100.00
73651;BME280;61944;52.538;6.108;2023-08-17T07:44:37;102006.06;;;17.51;100.00
73651;BME280;61944;52.538;6.108;2023-08-17T07:47:04;102006.50;;;17.56;100.00
73651;BME280;61944;52.538;6.108;2023-08-17T07:49:29;102016.59;;;17.57;100.00
73651;BME280;61944;52.538;6.108;2023-08-17T07:51:54;102017.84;;;17.71;100.00
73651;BME280;61944;52.538;6.108;2023-08-17T07:54:20;102009.75;;;17.65;100.00
73651;BME280;61944;52.538;6.108;2023-08-17T07:56:45;102015.88;;;17.82;100.00
73651;BME280;61944;52.538;6.108;2023-08-17T07:59:10;102005.34;;;17.79;100.00
73651;BME280;61944;52.538;6.108;2023-08-17T08:01:36;102016.25;;;17.70;100.00
73651;BME280;61944;52.538;6.108;2023-08-17T08:04:02;102018.25;;;17.73;100.00
73651;BME280;61944;52.538;6.108;2023-08-17T08:06:27;102008.66;;;17.95;100.00
73651;BME280;61944;52.538;6.108;2023-08-17T08:08:52;102012.28;;;17.88;100.00
73651;BME280;61944;52.538;6.108;2023-08-17T08:11:18;102019.97;;;17.95;100.00
73651;BME280;61944;52.538;6.108;2023-08-17T08:13:43;101999.66;;;17.68;100.00
73651;BME280;61944;52.538;6.108;2023-08-17T08:16:09;102016.72;;;17.86;100.00
73651;BME280;61944;52.538;6.108;2023-08-17T08:18:34;102026.06;;;18.01;100.00
73651;BME280;61944;52.538;6.108;2023-08-17T08:20:59;102024.03;;;17.98;100.00
73651;BME280;61944;52.538;6.108;2023-08-17T08:23:25;102020.44;;;18.22;100.00
73651;BME280;61944;52.538;6.108;2023-08-17T08:25:51;102021.66;;;18.18;100.00
73651;BME280;61944;52.538;6.108;2023-08-17T08:28:16;102029.31;;;18.21;100.00
73651;BME280;61944;52.538;6.108;2023-08-17T08:30:42;102034.22;;;18.45;100.00
73651;BME280;61944;52.538;6.108;2023-08-17T08:33:07;102030.16;;;18.36;100.00
73651;BME280;61944;52.538;6.108;2023-08-17T08:35:32;102034.59;;;18.44;100.00
73651;BME280;61944;52.538;6.108;2023-08-17T08:37:59;102016.78;;;18.51;100.00
73651;BME280;61944;52.538;6.108;2023-08-17T08:40:29;102007.06;;;18.37;100.00
73651;BME280;61944;52.538;6.108;2023-08-17T08:42:55;102020.03;;;18.45;100.00
73651;BME280;61944;52.538;6.108;2023-08-17T08:45:22;102016.78;;;18.43;100.00
73651;BME280;61944;52.538;6.108;2023-08-17T08:47:48;102018.41;;;18.62;100.00
73651;BME280;61944;52.538;6.108;2023-08-17T08:50:18;102001.41;;;18.48;100.00
73651;BME280;61944;52.538;6.108;2023-08-17T08:55:23;102012.72;;;18.59;100.00
73651;BME280;61944;52.538;6.108;2023-08-17T08:57:49;102003.03;;;18.45;100.00
73651;BME280;61944;52.538;6.108;2023-08-17T09:00:18;102013.94;;;18.68;100.00
73651;BME280;61944;52.538;6.108;2023-08-17T09:02:43;102011.91;;;18.73;100.00
73651;BME280;61944;52.538;6.108;2023-08-17T09:05:10;102020.84;;;18.85;100.00
73651;BME280;61944;52.538;6.108;2023-08-17T09:07:37;102026.50;;;18.82;100.00
73651;BME280;61944;52.538;6.108;2023-08-17T09:10:03;102003.78;;;18.93;100.00
73651;BME280;61944;52.538;6.108;2023-08-17T09:12:29;102010.28;;;19.00;100.00
73651;BME280;61944;52.538;6.108;2023-08-17T09:14:55;102009.50;;;18.85;100.00
73651;BME280;61944;52.538;6.108;2023-08-17T09:17:24;102006.25;;;18.80;100.00
73651;BME280;61944;52.538;6.108;2023-08-17T09:19:50;102007.88;;;18.70;100.00
73651;BME280;61944;52.538;6.108;2023-08-17T09:22:23;101999.78;;;18.68;100.00
73651;BME280;61944;52.538;6.108;2023-08-17T09:24:49;101996.13;;;18.68;100.00
73651;BME280;61944;52.538;6.108;2023-08-17T09:27:14;101989.25;;;18.58;100.00
73651;BME280;61944;52.538;6.108;2023-08-17T09:29:42;102005.41;;;18.76;100.00
73651;BME280;61944;52.538;6.108;2023-08-17T09:32:08;102005.03;;;18.88;100.00
73651;BME280;61944;52.538;6.108;2023-08-17T09:34:35;101989.63;;;18.82;100.00
73651;BME280;61944;52.538;6.108;2023-08-17T09:37:04;101992.47;;;18.85;100.00
73651;BME280;61944;52.538;6.108;2023-08-17T09:39:31;101997.72;;;18.91;100.00
73651;BME280;61944;52.538;6.108;2023-08-17T09:41:56;101992.44;;;18.93;100.00
73651;BME280;61944;52.538;6.108;2023-08-17T09:44:22;101990.84;;;18.92;100.00
73651;BME280;61944;52.538;6.108;2023-08-17T09:46:47;101979.47;;;18.95;100.00
73651;BME280;61944;52.538;6.108;2023-08-17T09:49:13;101993.22;;;19.07;100.00
73651;BME280;61944;52.538;6.108;2023-08-17T09:51:44;101979.47;;;19.06;100.00
73651;BME280;61944;52.538;6.108;2023-08-17T09:54:23;101993.25;;;19.04;100.00
73651;BME280;61944;52.538;6.108;2023-08-17T09:56:53;101993.28;;;18.89;100.00
73651;BME280;61944;52.538;6.108;2023-08-17T09:59:19;101979.50;;;18.77;100.00
73651;BME280;61944;52.538;6.108;2023-08-17T10:01:49;101992.88;;;18.77;100.00
73651;BME280;61944;52.538;6.108;2023-08-17T10:04:22;101993.69;;;18.59;100.00
73651;BME280;61944;52.538;6.108;2023-08-17T10:06:48;101991.25;;;18.76;100.00
73651;BME280;61944;52.538;6.108;2023-08-17T10:09:23;101982.78;;;18.58;100.00
73651;BME280;61944;52.538;6.108;2023-08-17T10:11:52;101977.09;;;18.54;100.00
73651;BME280;61944;52.538;6.108;2023-08-17T10:14:22;101982.34;;;18.59;100.00
73651;BME280;61944;52.538;6.108;2023-08-17T10:17:09;101994.09;;;18.79;100.00
73651;BME280;61944;52.538;6.108;2023-08-17T10:19:49;101990.84;;;18.74;100.00
73651;BME280;61944;52.538;6.108;2023-08-17T10:25:11;101976.69;;;18.66;100.00
73651;BME280;61944;52.538;6.108;2023-08-17T10:27:39;101973.84;;;18.81;100.00
73651;BME280;61944;52.538;6.108;2023-08-17T10:30:06;101985.19;;;18.81;100.00
73651;BME280;61944;52.538;6.108;2023-08-17T10:32:32;101986.00;;;18.81;100.00
73651;BME280;61944;52.538;6.108;2023-08-17T10:34:58;101973.84;;;18.70;100.00
73651;BME280;61944;52.538;6.108;2023-08-17T10:37:24;101973.81;;;18.77;100.00
73651;BME280;61944;52.538;6.108;2023-08-17T10:39:50;101980.31;;;18.81;100.00
73651;BME280;61944;52.538;6.108;2023-08-17T10:42:29;101977.06;;;18.90;100.00
73651;BME280;61944;52.538;6.108;2023-08-17T10:44:56;101949.94;;;18.85;100.00
73651;BME280;61944;52.538;6.108;2023-08-17T10:47:29;101959.25;;;18.82;100.00
73651;BME280;61944;52.538;6.108;2023-08-17T10:52:33;101940.94;;;19.12;100.00
73651;BME280;61944;52.538;6.108;2023-08-17T10:55:00;101954.22;;;19.29;100.00
73651;BME280;61944;52.538;6.108;2023-08-17T11:00:23;101971.19;;;19.44;100.00
73651;BME280;61944;52.538;6.108;2023-08-17T11:02:57;101964.72;;;19.40;100.00
73651;BME280;61944;52.538;6.108;2023-08-17T11:05:47;101968.41;;;19.29;100.00
73651;BME280;61944;52.538;6.108;2023-08-17T11:08:51;101963.94;;;19.36;100.00
73651;BME280;61944;52.538;6.108;2023-08-17T11:11:19;101956.69;;;19.20;100.00
73651;BME280;61944;52.538;6.108;2023-08-17T11:13:45;101945.31;;;19.27;100.00
73651;BME280;61944;52.538;6.108;2023-08-17T11:16:15;101959.00;;;19.43;100.00
73651;BME280;61944;52.538;6.108;2023-08-17T11:18:41;101958.13;;;19.61;100.00
73651;BME280;61944;52.538;6.108;2023-08-17T11:21:07;101955.72;;;19.52;100.00
73651;BME280;61944;52.538;6.108;2023-08-17T11:23:34;101948.31;;;19.73;100.00
73651;BME280;61944;52.538;6.108;2023-08-17T11:26:00;101946.38;;;19.55;100.00
73651;BME280;61944;52.538;6.108;2023-08-17T11:28:26;101957.22;;;19.78;100.00
73651;BME280;61944;52.538;6.108;2023-08-17T11:30:59;101960.84;;;19.82;100.00
73651;BME280;61944;52.538;6.108;2023-08-17T11:33:28;101961.97;;;19.99;100.00
73651;BME280;61944;52.538;6.108;2023-08-17T11:35:58;101940.97;;;19.82;100.00
73651;BME280;61944;52.538;6.108;2023-08-17T11:38:25;101952.75;;;19.81;100.00
73651;BME280;61944;52.538;6.108;2023-08-17T11:40:50;101957.53;;;19.95;100.00
73651;BME280;61944;52.538;6.108;2023-08-17T11:43:16;101941.44;;;19.74;100.00
73651;BME280;61944;52.538;6.108;2023-08-17T11:45:43;101957.56;;;19.87;100.00
73651;BME280;61944;52.538;6.108;2023-08-17T11:48:08;101949.53;;;19.75;100.00
73651;BME280;61944;52.538;6.108;2023-08-17T11:50:35;101966.53;;;19.82;100.00
73651;BME280;61944;52.538;6.108;2023-08-17T11:53:00;101958.75;;;19.90;100.00
73651;BME280;61944;52.538;6.108;2023-08-17T11:55:26;101942.56;;;19.87;100.00
73651;BME280;61944;52.538;6.108;2023-08-17T11:57:52;101956.28;;;19.96;100.00
73651;BME280;61944;52.538;6.108;2023-08-17T12:00:19;101943.34;;;19.91;100.00
73651;BME280;61944;52.538;6.108;2023-08-17T12:02:49;101953.50;;;19.88;100.00
73651;BME280;61944;52.538;6.108;2023-08-17T12:05:20;101955.09;;;19.97;100.00
73651;BME280;61944;52.538;6.108;2023-08-17T12:07:48;101940.59;;;19.77;100.00
73651;BME280;61944;52.538;6.108;2023-08-17T12:10:13;101940.03;;;19.96;100.00
73651;BME280;61944;52.538;6.108;2023-08-17T12:12:39;101940.09;;;19.89;100.00
73651;BME280;61944;52.538;6.108;2023-08-17T12:15:05;101939.63;;;19.98;100.00
73651;BME280;61944;52.538;6.108;2023-08-17T12:17:31;101932.69;;;20.02;100.00
73651;BME280;61944;52.538;6.108;2023-08-17T12:19:58;101940.69;;;20.18;100.00
73651;BME280;61944;52.538;6.108;2023-08-17T12:22:25;101945.97;;;20.20;100.00
73651;BME280;61944;52.538;6.108;2023-08-17T12:24:53;101926.97;;;20.09;100.00
73651;BME280;61944;52.538;6.108;2023-08-17T12:27:18;101930.59;;;20.10;100.00
73651;BME280;61944;52.538;6.108;2023-08-17T12:29:51;101928.25;;;20.01;100.00
73651;BME280;61944;52.538;6.108;2023-08-17T12:32:18;101941.50;;;20.19;100.00
73651;BME280;61944;52.538;6.108;2023-08-17T12:34:43;101934.72;;;20.02;100.00
73651;BME280;61944;52.538;6.108;2023-08-17T12:37:10;101938.41;;;19.99;100.00
73651;BME280;61944;52.538;6.108;2023-08-17T12:39:36;101921.50;;;19.81;100.00
73651;BME280;61944;52.538;6.108;2023-08-17T12:42:02;101920.72;;;19.77;100.00
73651;BME280;61944;52.538;6.108;2023-08-17T12:44:27;101918.22;;;19.86;100.00
73651;BME280;61944;52.538;6.108;2023-08-17T12:46:53;101944.78;;;20.14;100.00
73651;BME280;61944;52.538;6.108;2023-08-17T12:49:18;101931.09;;;19.98;100.00
73651;BME280;61944;52.538;6.108;2023-08-17T12:51:43;101938.44;;;19.95;100.00